Time;durP1;ratioP1;P1;durP2;ratioP2;P2;SDS_P1;SDS_P2;PMS_P1;PMS_P2;Temp;Humidity;BMP_temperature;BMP_pressure;BME280_temperature;BME280_humidity;BME280_pressure;Samples;Min_cycle;Max_cycle;Signal;HPM_P1;HPM_P2
2022/12/23 00:00:59;;;;;;;333.40;310.13;;;10.80;28.20;;;;;;5033521;28;20480;-71
2022/12/23 00:03:25;;;;;;;382.77;355.77;;;10.80;28.40;;;;;;5033007;28;20183;-71
2022/12/23 00:05:51;;;;;;;512.70;477.97;;;10.90;28.50;;;;;;5034449;28;20418;-71
2022/12/23 00:08:17;;;;;;;142.17;128.97;;;10.90;28.70;;;;;;5034681;28;20464;-71
2022/12/23 00:10:43;;;;;;;474.80;441.17;;;10.90;29.20;;;;;;5034446;28;20930;-71
2022/12/23 00:16:10;;;;;;;718.10;656.77;;;10.90;29.60;;;;;;5034461;28;20226;-71
2022/12/23 00:18:37;;;;;;;447.10;413.07;;;10.90;30.00;;;;;;5034355;28;20438;-71
2022/12/23 00:21:05;;;;;;;613.50;569.23;;;11.00;29.90;;;;;;5034501;28;20511;-72
2022/12/23 00:23:32;;;;;;;381.73;355.07;;;11.10;29.70;;;;;;5032433;28;20424;-71
2022/12/23 00:25:58;;;;;;;638.37;593.20;;;11.10;29.90;;;;;;5034121;28;20423;-71
2022/12/23 00:28:25;;;;;;;530.03;492.97;;;11.10;29.50;;;;;;5033921;28;20467;-71
2022/12/23 00:31:03;;;;;;;652.27;599.47;;;11.10;29.40;;;;;;5033989;28;20915;-71
2022/12/23 00:33:37;;;;;;;859.23;785.30;;;11.10;29.60;;;;;;5033731;28;20422;-71
2022/12/23 00:36:13;;;;;;;489.73;454.43;;;11.10;29.70;;;;;;5033847;28;20414;-71
2022/12/23 00:44:06;;;;;;;634.10;588.20;;;11.30;29.10;;;;;;5033893;28;20415;-71
2022/12/23 00:46:32;;;;;;;543.63;507.10;;;11.40;29.00;;;;;;5033622;28;21013;-72
2022/12/23 00:51:41;;;;;;;582.33;544.03;;;11.40;29.00;;;;;;5033455;28;20227;-71
2022/12/23 00:54:07;;;;;;;640.37;592.53;;;11.40;29.00;;;;;;5033571;28;20417;-71
2022/12/23 00:56:33;;;;;;;654.40;605.40;;;11.40;28.70;;;;;;5033489;28;20527;-71
2022/12/23 00:58:58;;;;;;;396.20;366.93;;;11.40;29.10;;;;;;5033404;28;20186;-71
2022/12/23 01:07:00;;;;;;;684.20;632.43;;;11.50;28.80;;;;;;5033709;28;20516;-72
2022/12/23 01:09:26;;;;;;;403.93;372.77;;;11.40;29.10;;;;;;5033260;28;20472;-71
2022/12/23 01:11:52;;;;;;;619.77;575.33;;;11.50;29.50;;;;;;5032133;28;20660;-71
2022/12/23 01:14:18;;;;;;;669.83;618.27;;;11.40;29.40;;;;;;5033137;28;20412;-71
2022/12/23 01:16:44;;;;;;;521.27;486.10;;;11.40;29.70;;;;;;5033021;28;20435;-71
2022/12/23 01:19:09;;;;;;;654.57;603.80;;;11.50;29.70;;;;;;5033109;28;20409;-71
2022/12/23 01:21:38;;;;;;;652.73;603.50;;;11.50;29.50;;;;;;5031632;28;20429;-71
2022/12/23 01:24:04;;;;;;;620.30;574.27;;;11.60;29.30;;;;;;5032921;28;20175;-72
2022/12/23 01:26:30;;;;;;;746.83;689.07;;;11.60;29.40;;;;;;5032867;28;20415;-72
2022/12/23 01:28:56;;;;;;;258.17;240.47;;;11.70;29.20;;;;;;5032844;28;20967;-72
2022/12/23 01:31:26;;;;;;;452.53;417.13;;;11.70;29.50;;;;;;5032887;28;20176;-72
2022/12/23 01:33:52;;;;;;;421.13;390.30;;;11.60;29.70;;;;;;5032775;28;20417;-71
2022/12/23 01:36:19;;;;;;;648.10;598.13;;;11.60;29.50;;;;;;5032577;28;20922;-71
2022/12/23 01:38:44;;;;;;;296.57;272.73;;;11.60;29.60;;;;;;5032583;28;20432;-72
2022/12/23 01:42:42;;;;;;;387.07;357.63;;;11.60;29.70;;;;;;5032639;28;20421;-70
2022/12/23 01:44:42;;;;;;;309.47;285.13;;;11.70;29.20;;;;;;5032610;28;20236;-71
2022/12/23 01:47:12;;;;;;;515.97;474.80;;;11.70;29.50;;;;;;5032621;28;20421;-71
2022/12/23 01:49:39;;;;;;;453.70;421.40;;;11.70;29.20;;;;;;5031542;28;20840;-71
2022/12/23 01:52:04;;;;;;;485.40;446.63;;;11.70;29.70;;;;;;5032346;28;20459;-71
2022/12/23 01:54:30;;;;;;;371.93;344.43;;;11.70;30.00;;;;;;5032479;28;20406;-71
2022/12/23 01:56:57;;;;;;;588.00;545.77;;;11.70;29.40;;;;;;5031071;28;20195;-71
2022/12/23 02:04:57;;;;;;;549.13;510.10;;;11.70;30.20;;;;;;5032278;28;20942;-71
2022/12/23 02:10:07;;;;;;;480.60;448.43;;;11.80;29.90;;;;;;5032415;28;20402;-71
2022/12/23 02:12:52;;;;;;;443.33;412.03;;;11.80;30.00;;;;;;5031970;28;20514;-71
2022/12/23 02:18:48;;;;;;;620.00;573.77;;;11.80;30.10;;;;;;5031773;28;20476;-71
2022/12/23 02:21:40;;;;;;;218.00;203.63;;;11.70;30.60;;;;;;5009007;28;20452;-71
2022/12/23 02:24:23;;;;;;;562.93;522.83;;;11.70;31.30;;;;;;5031180;28;20428;-72
2022/12/23 02:27:01;;;;;;;760.63;696.30;;;11.70;31.10;;;;;;5031539;28;20433;-71
2022/12/23 02:29:53;;;;;;;497.67;458.87;;;11.70;31.00;;;;;;5032020;28;20462;-71
2022/12/23 02:32:42;;;;;;;678.77;626.07;;;11.70;31.40;;;;;;5031699;28;20467;-71
2022/12/23 02:35:19;;;;;;;477.73;446.33;;;11.80;31.00;;;;;;5032015;28;20695;-71
2022/12/23 02:37:56;;;;;;;387.50;364.00;;;11.80;31.30;;;;;;5031795;28;20881;-71
2022/12/23 02:40:33;;;;;;;253.83;232.57;;;11.80;31.30;;;;;;5031840;28;20421;-71
2022/12/23 02:43:34;;;;;;;375.93;350.53;;;11.80;31.10;;;;;;5031495;28;20972;-71
2022/12/23 02:46:29;;;;;;;579.27;537.47;;;11.90;30.60;;;;;;5008522;28;20945;-71
2022/12/23 02:49:00;;;;;;;266.83;247.50;;;11.90;30.90;;;;;;5031756;28;20899;-72
2022/12/23 02:51:31;;;;;;;170.03;155.63;;;12.00;30.90;;;;;;5031710;28;20410;-72
2022/12/23 02:54:01;;;;;;;572.13;534.20;;;12.00;30.60;;;;;;5031876;28;20539;-72
2022/12/23 02:56:29;;;;;;;603.33;557.47;;;11.90;30.90;;;;;;5031871;28;20422;-73
2022/12/23 02:59:00;;;;;;;347.23;323.90;;;11.90;30.60;;;;;;5031784;28;20504;-72
2022/12/23 03:01:30;;;;;;;509.97;475.10;;;11.90;31.00;;;;;;5031864;28;20424;-72
2022/12/23 03:03:56;;;;;;;498.03;464.37;;;11.90;30.60;;;;;;5031892;28;20915;-72
2022/12/23 03:06:27;;;;;;;542.80;505.57;;;11.90;30.40;;;;;;5030544;28;20520;-71
2022/12/23 03:08:56;;;;;;;600.90;559.90;;;11.90;30.30;;;;;;5031464;28;20660;-72
2022/12/23 03:11:38;;;;;;;480.40;448.17;;;12.00;30.10;;;;;;5031431;28;20855;-72
2022/12/23 03:14:29;;;;;;;617.40;575.53;;;11.90;30.10;;;;;;5031637;28;20405;-71
2022/12/23 03:17:06;;;;;;;728.17;670.07;;;12.00;29.80;;;;;;5031486;28;20429;-71
2022/12/23 03:19:41;;;;;;;677.87;630.83;;;12.00;30.00;;;;;;5031527;28;20435;-72
2022/12/23 03:22:45;;;;;;;601.63;559.07;;;12.10;29.90;;;;;;5031185;28;20973;-71
2022/12/23 03:25:15;;;;;;;375.53;349.33;;;12.10;29.70;;;;;;4989863;28;20851;-71
2022/12/23 03:27:59;;;;;;;597.43;554.00;;;12.20;29.90;;;;;;5023912;28;20473;-71
2022/12/23 03:30:25;;;;;;;430.47;398.73;;;12.10;30.20;;;;;;5030153;28;20417;-71
2022/12/23 03:32:52;;;;;;;671.90;624.00;;;12.00;30.50;;;;;;5031056;28;20974;-71
2022/12/23 03:35:32;;;;;;;435.67;403.70;;;11.90;30.50;;;;;;5031262;28;20412;-72
2022/12/23 03:38:01;;;;;;;605.27;565.00;;;11.90;31.10;;;;;;5034395;28;20464;-71
2022/12/23 03:41:05;;;;;;;223.30;206.57;;;11.90;31.30;;;;;;5033703;28;20425;-71
2022/12/23 03:43:40;;;;;;;568.07;522.00;;;12.00;31.20;;;;;;4973527;28;20441;-71
2022/12/23 03:46:14;;;;;;;458.80;425.17;;;12.00;31.80;;;;;;5027485;28;20567;-72
2022/12/23 03:48:54;;;;;;;427.53;396.87;;;11.80;32.10;;;;;;5034748;28;20836;-72
2022/12/23 03:51:49;;;;;;;616.27;571.13;;;11.80;32.50;;;;;;5034749;28;20406;-72
2022/12/23 03:54:21;;;;;;;376.67;351.47;;;11.80;32.50;;;;;;5032516;28;20914;-71
2022/12/23 03:56:53;;;;;;;741.23;686.87;;;11.80;32.70;;;;;;5034828;28;20426;-71
2022/12/23 03:59:30;;;;;;;526.97;494.97;;;11.80;32.90;;;;;;5034681;28;20409;-71
2022/12/23 04:02:17;;;;;;;225.50;207.40;;;11.80;32.50;;;;;;5034430;28;20412;-71
2022/12/23 04:05:08;;;;;;;486.77;454.53;;;11.90;33.50;;;;;;5034745;28;20413;-72
2022/12/23 04:07:46;;;;;;;432.73;404.43;;;11.90;34.10;;;;;;5034560;28;20794;-71
2022/12/23 04:10:12;;;;;;;396.97;372.00;;;12.00;34.60;;;;;;5034650;28;20808;-71
2022/12/23 04:12:38;;;;;;;604.10;561.80;;;11.90;35.50;;;;;;5034238;28;20767;-71
2022/12/23 04:15:05;;;;;;;648.43;607.00;;;11.90;35.70;;;;;;5034361;28;20404;-71
2022/12/23 04:17:31;;;;;;;340.37;315.87;;;11.90;35.70;;;;;;5034218;28;20537;-72
2022/12/23 04:19:57;;;;;;;310.93;287.50;;;11.90;36.50;;;;;;5034469;28;20935;-71
2022/12/23 04:22:22;;;;;;;205.53;190.53;;;11.90;35.30;;;;;;5034049;28;20414;-71
2022/12/23 04:24:48;;;;;;;256.87;240.77;;;12.00;34.80;;;;;;5034235;28;20233;-71
2022/12/23 04:27:14;;;;;;;579.47;537.67;;;11.90;35.20;;;;;;5034149;28;20565;-71
2022/12/23 04:29:40;;;;;;;572.07;530.87;;;11.80;34.60;;;;;;5034101;28;20694;-70
2022/12/23 04:32:09;;;;;;;590.07;552.57;;;11.70;35.70;;;;;;5033881;28;20443;-71
2022/12/23 04:34:35;;;;;;;678.27;627.60;;;11.80;35.90;;;;;;5034108;28;20409;-72
2022/12/23 04:37:01;;;;;;;526.97;488.40;;;11.80;34.90;;;;;;5033858;28;20805;-71
2022/12/23 04:39:26;;;;;;;634.90;591.83;;;11.90;34.80;;;;;;5033924;28;20422;-71
2022/12/23 04:41:52;;;;;;;678.83;631.17;;;11.90;34.80;;;;;;5033705;28;20174;-71
2022/12/23 04:44:17;;;;;;;503.97;465.33;;;11.90;33.90;;;;;;5033990;28;20186;-70
2022/12/23 04:46:43;;;;;;;614.23;563.00;;;11.90;35.20;;;;;;5033913;28;20251;-71
2022/12/23 04:49:09;;;;;;;534.93;497.40;;;11.80;34.40;;;;;;5033051;28;20746;-71
2022/12/23 04:51:35;;;;;;;499.73;469.17;;;11.90;35.10;;;;;;5033554;28;20466;-71
2022/12/23 04:54:00;;;;;;;362.30;337.10;;;11.90;35.20;;;;;;5033929;28;20174;-71
2022/12/23 04:56:26;;;;;;;560.87;516.83;;;12.00;34.20;;;;;;5033514;28;20188;-71
2022/12/23 04:58:51;;;;;;;391.80;364.27;;;12.00;33.70;;;;;;5033774;28;20182;-71
2022/12/23 05:01:17;;;;;;;352.03;325.03;;;11.90;33.80;;;;;;5033683;28;20186;-71
2022/12/23 05:03:44;;;;;;;185.80;170.57;;;12.00;33.60;;;;;;5033484;28;20204;-71
2022/12/23 05:06:09;;;;;;;420.00;386.90;;;12.00;33.60;;;;;;5036445;28;20167;-71
2022/12/23 05:08:35;;;;;;;392.93;367.80;;;11.90;34.10;;;;;;5034026;28;20464;-70
2022/12/23 05:11:01;;;;;;;643.83;602.37;;;11.90;34.50;;;;;;5034897;28;20175;-71
2022/12/23 05:13:26;;;;;;;297.70;279.50;;;12.00;34.40;;;;;;5034260;28;20171;-71
2022/12/23 05:15:53;;;;;;;535.93;498.37;;;12.10;33.50;;;;;;5034307;28;20185;-70
2022/12/23 05:18:20;;;;;;;320.27;298.83;;;12.00;34.70;;;;;;5034460;28;20199;-71
2022/12/23 05:20:46;;;;;;;481.17;447.13;;;11.90;35.00;;;;;;5034213;28;20505;-71
2022/12/23 05:23:12;;;;;;;663.27;613.03;;;11.90;34.70;;;;;;5033491;28;20842;-70
2022/12/23 05:25:38;;;;;;;491.83;457.27;;;11.90;35.30;;;;;;5033483;28;20179;-70
2022/12/23 05:28:06;;;;;;;574.60;532.50;;;11.90;35.80;;;;;;5033363;28;20505;-71
2022/12/23 05:30:32;;;;;;;561.73;522.20;;;11.80;37.60;;;;;;5033451;28;20547;-71
2022/12/23 05:32:58;;;;;;;443.40;414.07;;;11.80;37.80;;;;;;5033004;28;20855;-71
2022/12/23 05:35:25;;;;;;;530.40;496.53;;;11.90;37.90;;;;;;5033085;28;20254;-70
2022/12/23 05:37:51;;;;;;;490.83;455.73;;;11.90;37.90;;;;;;5083842;22;20228;-70
2022/12/23 05:40:16;;;;;;;577.13;536.80;;;11.90;37.40;;;;;;5092886;28;20417;-70
2022/12/23 05:42:42;;;;;;;617.47;573.97;;;12.00;36.70;;;;;;5092597;28;20418;-70
2022/12/23 05:45:08;;;;;;;661.27;619.27;;;12.00;36.60;;;;;;5108545;28;20203;-70
2022/12/23 05:47:33;;;;;;;526.97;495.60;;;12.10;36.40;;;;;;5092697;28;20192;-70
2022/12/23 05:49:59;;;;;;;347.53;321.97;;;12.10;35.90;;;;;;5092768;28;20490;-69
2022/12/23 05:52:25;;;;;;;535.17;501.80;;;11.90;36.00;;;;;;5092580;28;20649;-70
2022/12/23 05:54:50;;;;;;;306.53;285.43;;;11.90;36.00;;;;;;5108285;28;20208;-69
2022/12/23 05:57:16;;;;;;;477.00;444.57;;;12.00;35.70;;;;;;5092586;28;20189;-70
2022/12/23 05:59:41;;;;;;;440.47;408.33;;;12.00;35.10;;;;;;5092501;28;20676;-70
2022/12/23 06:02:07;;;;;;;558.50;518.03;;;12.00;35.40;;;;;;5092325;28;20252;-70
2022/12/23 06:04:32;;;;;;;669.80;627.50;;;11.90;34.50;;;;;;5092811;28;20642;-72
2022/12/23 06:06:58;;;;;;;590.17;550.87;;;11.90;35.40;;;;;;5093246;28;20173;-72
2022/12/23 06:09:24;;;;;;;591.57;548.33;;;11.90;34.70;;;;;;5092338;28;20657;-71
2022/12/23 06:11:49;;;;;;;477.33;444.43;;;11.90;34.50;;;;;;5107952;28;20544;-72
2022/12/23 06:14:15;;;;;;;583.27;538.13;;;11.90;34.80;;;;;;5092555;28;20666;-71
2022/12/23 06:16:40;;;;;;;491.50;458.40;;;11.90;34.10;;;;;;5092351;28;20587;-71
2022/12/23 06:19:06;;;;;;;502.10;470.10;;;11.90;34.90;;;;;;5090958;28;20271;-70
2022/12/23 06:21:32;;;;;;;527.47;490.00;;;11.90;35.10;;;;;;5092109;28;20210;-71
2022/12/23 06:23:57;;;;;;;318.47;298.80;;;11.80;35.40;;;;;;5090827;28;20188;-71
2022/12/23 06:26:23;;;;;;;324.97;302.47;;;11.80;35.40;;;;;;5092257;28;20188;-71
2022/12/23 06:28:48;;;;;;;352.53;326.23;;;11.80;35.40;;;;;;5090757;28;20699;-71
2022/12/23 06:31:14;;;;;;;637.70;595.33;;;11.80;34.90;;;;;;5092166;28;20180;-70
2022/12/23 06:33:40;;;;;;;507.10;469.87;;;11.80;35.00;;;;;;5091956;28;20560;-71
2022/12/23 06:36:06;;;;;;;433.77;407.53;;;11.80;35.80;;;;;;5107761;28;20511;-71
2022/12/23 06:38:32;;;;;;;137.87;126.67;;;11.70;36.40;;;;;;5091897;28;20240;-71
2022/12/23 06:40:57;;;;;;;266.20;247.80;;;11.80;36.80;;;;;;5092103;28;20415;-72
2022/12/23 06:43:23;;;;;;;458.43;429.00;;;11.80;36.90;;;;;;5091756;28;20183;-72
2022/12/23 06:45:49;;;;;;;439.50;408.73;;;11.80;36.20;;;;;;5091994;28;20183;-71
2022/12/23 06:48:16;;;;;;;560.63;518.53;;;11.70;36.00;;;;;;5107510;28;20207;-71
2022/12/23 06:50:42;;;;;;;527.00;493.63;;;11.70;36.90;;;;;;5091957;28;20404;-71
2022/12/23 06:53:08;;;;;;;441.47;410.47;;;11.60;38.20;;;;;;5091675;28;20911;-71
2022/12/23 06:55:34;;;;;;;483.87;452.63;;;11.50;37.70;;;;;;5091839;28;20402;-71
2022/12/23 06:57:59;;;;;;;508.00;469.73;;;11.50;39.20;;;;;;5107472;28;20441;-71
2022/12/23 07:00:25;;;;;;;381.97;357.90;;;11.70;38.30;;;;;;5091783;28;20201;-71
2022/12/23 07:02:53;;;;;;;267.97;251.13;;;11.70;38.50;;;;;;5091650;28;20176;-71
2022/12/23 07:05:19;;;;;;;455.40;427.20;;;11.80;37.80;;;;;;5092030;28;20637;-71
2022/12/23 07:07:44;;;;;;;323.73;303.87;;;11.90;37.10;;;;;;5091592;28;20457;-72
2022/12/23 07:10:10;;;;;;;549.77;510.97;;;12.00;37.20;;;;;;5091771;28;20169;-71
2022/12/23 07:12:36;;;;;;;618.23;575.07;;;12.00;36.60;;;;;;5110056;28;20540;-71
2022/12/23 07:15:02;;;;;;;662.33;618.50;;;12.00;36.50;;;;;;5095713;28;20243;-71
2022/12/23 07:17:28;;;;;;;419.97;394.17;;;11.90;37.00;;;;;;5095705;28;20192;-71
2022/12/23 07:19:53;;;;;;;305.00;286.53;;;12.00;36.50;;;;;;5095731;28;20412;-72
2022/12/23 07:22:19;;;;;;;330.93;308.17;;;12.10;35.10;;;;;;5095315;28;20172;-71
2022/12/23 07:24:44;;;;;;;512.70;479.40;;;12.20;35.00;;;;;;5095595;28;20185;-71
2022/12/23 07:27:10;;;;;;;505.87;467.50;;;12.10;35.40;;;;;;5094058;28;20189;-71
2022/12/23 07:29:35;;;;;;;473.63;442.87;;;12.00;36.50;;;;;;5095269;28;20215;-72
2022/12/23 07:32:01;;;;;;;650.27;601.33;;;12.00;36.30;;;;;;5095292;28;20175;-71
2022/12/23 07:34:27;;;;;;;643.00;602.97;;;12.00;35.90;;;;;;5095594;28;20184;-71
2022/12/23 07:36:52;;;;;;;471.67;440.87;;;12.00;35.90;;;;;;5095040;28;20198;-71
2022/12/23 07:39:18;;;;;;;631.43;590.57;;;12.00;36.60;;;;;;5094100;28;20675;-71
2022/12/23 07:41:44;;;;;;;225.67;209.17;;;12.10;35.50;;;;;;5093568;28;20591;-72
2022/12/23 07:44:09;;;;;;;635.60;587.40;;;12.10;35.90;;;;;;5093935;28;20178;-71
2022/12/23 07:46:35;;;;;;;496.33;464.77;;;12.10;34.70;;;;;;5093868;28;20732;-71
2022/12/23 07:49:00;;;;;;;550.00;514.27;;;12.10;36.40;;;;;;5093794;28;20207;-71
2022/12/23 07:51:26;;;;;;;654.23;612.37;;;12.20;35.80;;;;;;5109587;28;20259;-71
2022/12/23 07:53:52;;;;;;;489.47;456.97;;;12.20;35.70;;;;;;5093751;28;20251;-71
2022/12/23 07:56:18;;;;;;;338.97;316.23;;;12.30;35.50;;;;;;5093633;28;20205;-71
2022/12/23 07:58:48;;;;;;;653.97;611.33;;;12.30;35.40;;;;;;5094083;28;20210;-72
2022/12/23 08:01:14;;;;;;;594.53;554.07;;;12.30;35.20;;;;;;5093750;28;20559;-73
2022/12/23 08:03:39;;;;;;;628.33;584.63;;;12.20;36.00;;;;;;5093927;28;20422;-72
2022/12/23 08:06:07;;;;;;;482.87;451.83;;;12.20;36.20;;;;;;5093554;28;20518;-73
2022/12/23 08:08:34;;;;;;;398.77;370.80;;;12.30;36.60;;;;;;5109163;28;20219;-71
2022/12/23 08:11:04;;;;;;;358.87;338.63;;;12.30;36.10;;;;;;5088668;28;20468;-72
2022/12/23 08:13:33;;;;;;;583.10;543.17;;;12.40;36.20;;;;;;5086894;28;20758;-72
2022/12/23 08:16:00;;;;;;;647.13;603.57;;;12.30;36.10;;;;;;5091312;28;20588;-72
2022/12/23 08:18:28;;;;;;;656.27;614.27;;;12.40;35.90;;;;;;5084130;28;20453;-71
2022/12/23 08:21:02;;;;;;;676.67;629.83;;;12.40;36.30;;;;;;5084633;28;20432;-73
2022/12/23 08:23:29;;;;;;;573.70;537.00;;;12.50;36.60;;;;;;5069533;28;20550;-70
2022/12/23 08:26:08;;;;;;;349.13;325.07;;;12.50;36.10;;;;;;5079819;28;20709;-70
2022/12/23 08:28:35;;;;;;;432.00;403.77;;;12.50;36.40;;;;;;5091482;28;20498;-70
2022/12/23 08:31:14;;;;;;;486.33;453.03;;;12.30;36.70;;;;;;5091205;28;20423;-69
2022/12/23 08:33:41;;;;;;;572.97;535.87;;;12.40;38.20;;;;;;5091582;28;20435;-71
2022/12/23 08:36:08;;;;;;;546.40;511.73;;;12.50;38.00;;;;;;5092800;28;20512;-70
2022/12/23 08:38:35;;;;;;;505.37;474.23;;;12.50;37.90;;;;;;5053745;28;1059682;-70
2022/12/23 08:41:01;;;;;;;502.40;470.67;;;12.60;38.50;;;;;;5081256;28;20204;-70
2022/12/23 08:43:26;;;;;;;560.77;520.63;;;12.70;37.30;;;;;;5079497;28;20439;-70
2022/12/23 08:45:52;;;;;;;687.20;638.63;;;12.70;35.60;;;;;;5087409;28;20211;-70
2022/12/23 08:48:18;;;;;;;615.87;572.60;;;12.60;37.00;;;;;;5092625;28;20212;-73
2022/12/23 08:50:45;;;;;;;491.43;461.53;;;12.70;37.00;;;;;;5093587;28;21033;-70
2022/12/23 08:53:12;;;;;;;714.40;662.13;;;12.80;36.80;;;;;;5092798;28;20248;-72
2022/12/23 08:55:43;;;;;;;263.30;247.33;;;12.80;36.10;;;;;;5093662;28;20506;-75
2022/12/23 08:58:09;;;;;;;502.67;464.03;;;12.90;36.10;;;;;;5091945;28;20469;-69
2022/12/23 09:00:35;;;;;;;530.57;495.10;;;12.80;35.90;;;;;;5093274;28;20427;-69
2022/12/23 09:03:01;;;;;;;353.83;331.57;;;12.80;36.10;;;;;;5092567;28;20516;-69
2022/12/23 09:05:27;;;;;;;572.40;532.50;;;12.80;36.10;;;;;;5093224;28;20560;-68
2022/12/23 09:07:53;;;;;;;412.13;383.60;;;12.80;36.30;;;;;;5092579;28;20470;-68
2022/12/23 09:10:19;;;;;;;407.10;381.60;;;12.80;36.40;;;;;;5086639;28;20178;-68
2022/12/23 09:12:45;;;;;;;733.20;680.93;;;12.80;37.10;;;;;;5072583;28;20281;-68
2022/12/23 09:15:11;;;;;;;516.37;483.80;;;12.80;36.90;;;;;;5078592;28;20541;-68
2022/12/23 09:17:36;;;;;;;653.33;609.63;;;12.80;37.10;;;;;;5093174;28;20430;-69
2022/12/23 09:20:02;;;;;;;866.83;798.60;;;12.80;37.20;;;;;;5093162;28;20407;-69
2022/12/23 09:22:28;;;;;;;620.53;579.87;;;12.80;37.20;;;;;;5091784;28;20181;-69
2022/12/23 09:24:54;;;;;;;420.87;394.50;;;12.80;37.10;;;;;;5091299;28;20423;-68
2022/12/23 09:27:20;;;;;;;529.97;495.67;;;12.90;37.10;;;;;;5088158;28;20232;-69
2022/12/23 09:29:45;;;;;;;558.17;520.73;;;12.90;36.40;;;;;;5092585;28;20457;-69
2022/12/23 09:32:11;;;;;;;569.30;532.00;;;12.80;36.50;;;;;;5091727;28;20626;-69
2022/12/23 09:34:36;;;;;;;623.47;580.97;;;12.70;37.40;;;;;;5083283;28;20551;-70
2022/12/23 09:37:02;;;;;;;347.33;328.87;;;12.70;37.20;;;;;;5086912;28;20398;-69
2022/12/23 09:39:28;;;;;;;623.40;582.23;;;12.70;38.60;;;;;;5090780;28;20242;-70
2022/12/23 09:42:04;;;;;;;400.67;379.93;;;12.80;38.70;;;;;;5092164;28;20173;-70
2022/12/23 09:45:16;;;;;;;447.43;420.20;;;12.90;37.00;;;;;;5092890;28;20181;-72
2022/12/23 09:47:43;;;;;;;463.53;431.93;;;12.90;36.20;;;;;;5034679;28;20521;-71
2022/12/23 09:50:30;;;;;;;329.70;310.70;;;13.00;35.80;;;;;;5070839;28;20796;-72
2022/12/23 09:53:25;;;;;;;384.97;361.90;;;13.00;35.70;;;;;;5072205;28;20415;-71
2022/12/23 09:56:01;;;;;;;359.23;338.10;;;13.00;35.60;;;;;;5070700;28;20458;-71
2022/12/23 09:58:41;;;;;;;665.50;618.30;;;13.10;34.40;;;;;;5092924;28;20529;-72
2022/12/23 10:01:09;;;;;;;397.73;372.27;;;13.20;33.80;;;;;;5092597;28;20403;-72
2022/12/23 10:04:04;;;;;;;603.63;560.23;;;13.30;33.90;;;;;;5091577;28;20423;-73
2022/12/23 10:06:32;;;;;;;529.47;496.20;;;13.30;34.60;;;;;;5090579;28;20434;-72
2022/12/23 10:09:01;;;;;;;750.00;697.23;;;13.30;33.90;;;;;;5092113;28;20458;-73
2022/12/23 10:11:43;;;;;;;770.10;714.87;;;13.40;33.90;;;;;;5092011;28;20446;-72
2022/12/23 10:14:13;;;;;;;770.27;716.13;;;13.40;34.00;;;;;;5107952;28;20496;-72
2022/12/23 10:16:43;;;;;;;718.13;664.50;;;13.60;32.60;;;;;;5092342;28;20961;-71
2022/12/23 10:19:17;;;;;;;731.03;677.17;;;13.80;32.00;;;;;;5092050;28;20809;-71
2022/12/23 10:21:54;;;;;;;841.20;778.17;;;13.90;31.90;;;;;;5090530;28;20419;-71
2022/12/23 10:24:24;;;;;;;423.67;397.83;;;14.00;30.80;;;;;;5089993;28;20938;-71
2022/12/23 10:26:50;;;;;;;443.47;413.87;;;14.10;29.70;;;;;;5102916;28;20421;-71
2022/12/23 10:29:22;;;;;;;494.50;459.03;;;14.20;29.70;;;;;;5094185;28;20458;-71
2022/12/23 10:32:25;;;;;;;584.20;538.97;;;14.20;29.20;;;;;;5083985;28;20465;-72
2022/12/23 10:35:19;;;;;;;538.10;497.63;;;14.20;28.60;;;;;;5088184;28;20506;-72
2022/12/23 10:38:10;;;;;;;357.20;330.97;;;14.10;27.90;;;;;;5083176;28;21610;-71
2022/12/23 10:40:52;;;;;;;744.27;692.53;;;14.10;28.30;;;;;;5076661;28;20420;-72
2022/12/23 10:43:38;;;;;;;735.97;682.80;;;14.30;27.90;;;;;;5077173;28;20464;-71
2022/12/23 10:46:17;;;;;;;370.00;343.60;;;14.50;25.70;;;;;;5044605;28;20431;-71
2022/12/23 10:49:12;;;;;;;745.33;694.47;;;14.40;25.60;;;;;;5091800;28;20473;-70
2022/12/23 10:51:47;;;;;;;271.87;250.60;;;14.40;25.60;;;;;;5087909;28;20418;-71
2022/12/23 10:54:31;;;;;;;620.77;575.63;;;14.50;25.70;;;;;;5088647;28;20429;-71
2022/12/23 10:56:57;;;;;;;560.47;521.33;;;14.20;25.50;;;;;;5081426;28;20470;-71
2022/12/23 10:59:30;;;;;;;520.20;485.27;;;14.30;25.60;;;;;;5071810;28;20487;-71
2022/12/23 11:02:30;;;;;;;437.87;409.97;;;14.20;25.00;;;;;;5069988;28;20420;-71
2022/12/23 11:04:56;;;;;;;351.90;328.17;;;14.20;24.70;;;;;;5071503;28;20404;-70
2022/12/23 11:07:24;;;;;;;654.17;607.73;;;14.40;24.90;;;;;;5071118;28;20786;-72
2022/12/23 11:09:55;;;;;;;474.67;440.37;;;14.30;24.10;;;;;;5079656;28;20193;-71
2022/12/23 11:12:35;;;;;;;553.83;514.63;;;14.20;25.00;;;;;;5071082;28;20417;-71
2022/12/23 11:15:01;;;;;;;531.60;495.37;;;14.20;25.00;;;;;;5071410;28;20404;-71
2022/12/23 11:17:33;;;;;;;544.53;503.57;;;14.00;25.40;;;;;;5071253;28;20510;-71
2022/12/23 11:20:15;;;;;;;722.33;671.93;;;13.90;25.70;;;;;;5081982;28;20177;-71
2022/12/23 11:22:48;;;;;;;475.00;440.47;;;14.10;26.30;;;;;;5091174;28;20404;-70
2022/12/23 11:25:39;;;;;;;172.47;159.43;;;14.30;25.60;;;;;;5091572;28;20408;-71
2022/12/23 11:28:18;;;;;;;520.97;481.83;;;14.60;25.50;;;;;;5090031;28;20459;-71
2022/12/23 11:30:49;;;;;;;598.70;558.33;;;14.80;24.20;;;;;;5091516;28;20426;-71
2022/12/23 11:33:28;;;;;;;740.37;688.47;;;14.90;23.70;;;;;;5082881;28;20408;-71
2022/12/23 11:36:07;;;;;;;711.47;663.43;;;15.10;23.60;;;;;;5071475;28;20815;-71
2022/12/23 11:38:36;;;;;;;162.83;151.00;;;15.20;23.30;;;;;;5107972;22;20587;-70
2022/12/23 11:41:03;;;;;;;881.67;818.00;;;15.20;22.50;;;;;;5108161;28;20472;-71
2022/12/23 11:43:31;;;;;;;700.67;649.47;;;15.30;22.70;;;;;;5108885;28;20788;-71
2022/12/23 11:46:14;;;;;;;443.23;413.17;;;15.30;22.30;;;;;;5092419;28;20504;-71
2022/12/23 11:48:40;;;;;;;285.17;266.47;;;15.20;22.90;;;;;;5094353;28;20459;-71
2022/12/23 11:51:05;;;;;;;463.73;429.67;;;14.90;22.60;;;;;;5092245;28;20410;-71
2022/12/23 11:53:31;;;;;;;740.40;688.93;;;15.00;22.60;;;;;;5084562;28;20587;-72
2022/12/23 11:56:13;;;;;;;503.17;468.97;;;15.00;22.70;;;;;;5093000;28;20181;-73
2022/12/23 11:59:01;;;;;;;668.23;621.20;;;15.00;23.00;;;;;;5095246;28;20231;-72
2022/12/23 12:01:27;;;;;;;685.23;637.53;;;14.70;22.60;;;;;;5095085;28;20416;-70
2022/12/23 12:03:57;;;;;;;672.10;625.90;;;14.60;22.80;;;;;;5096031;28;20826;-70
2022/12/23 12:06:24;;;;;;;537.77;498.43;;;14.40;23.40;;;;;;5096539;28;20525;-72
2022/12/23 12:08:52;;;;;;;303.93;284.30;;;14.40;23.70;;;;;;5095686;28;20473;-70
2022/12/23 12:11:24;;;;;;;280.97;260.33;;;14.30;24.30;;;;;;5094992;28;20413;-70
2022/12/23 12:13:56;;;;;;;455.17;422.37;;;14.10;25.10;;;;;;5095043;28;20396;-70
2022/12/23 12:16:46;;;;;;;603.57;563.03;;;14.00;25.40;;;;;;5093578;28;20921;-71
2022/12/23 12:19:49;;;;;;;524.30;489.57;;;14.00;25.30;;;;;;5093138;28;20455;-70
2022/12/23 12:22:31;;;;;;;621.00;577.00;;;14.00;26.10;;;;;;5092890;28;20415;-70
2022/12/23 12:24:58;;;;;;;611.03;567.67;;;13.90;26.10;;;;;;5094424;28;20411;-71
2022/12/23 12:27:36;;;;;;;444.40;411.90;;;13.90;26.60;;;;;;5094178;28;20467;-70
2022/12/23 12:30:06;;;;;;;526.17;488.67;;;13.80;26.80;;;;;;5093275;28;20438;-70
2022/12/23 12:32:49;;;;;;;566.07;525.47;;;13.80;27.30;;;;;;5093871;28;20423;-69
2022/12/23 12:35:45;;;;;;;622.40;574.40;;;13.90;27.70;;;;;;5094373;28;20414;-69
2022/12/23 12:38:24;;;;;;;502.60;464.10;;;13.90;27.60;;;;;;5093150;28;20531;-70
2022/12/23 12:40:57;;;;;;;614.80;569.23;;;13.90;27.80;;;;;;5094302;28;20415;-70
2022/12/23 12:43:30;;;;;;;695.57;648.43;;;14.00;27.00;;;;;;5094609;28;20416;-69
2022/12/23 12:46:17;;;;;;;649.17;602.03;;;14.00;27.00;;;;;;5094546;28;20910;-69
2022/12/23 12:49:04;;;;;;;264.87;245.97;;;14.20;26.10;;;;;;5093705;28;20827;-68
2022/12/23 12:51:41;;;;;;;544.13;502.93;;;14.20;25.50;;;;;;5093813;28;20491;-69
2022/12/23 12:54:18;;;;;;;656.20;610.33;;;14.20;25.00;;;;;;5109926;28;20511;-72
2022/12/23 12:56:48;;;;;;;466.80;435.67;;;14.30;25.00;;;;;;5096825;28;20953;-70